Time;durP1;ratioP1;P1;durP2;ratioP2;P2;SDS_P1;SDS_P2;PMS_P1;PMS_P2;Temp;Humidity;BMP_temperature;BMP_pressure;BME280_temperature;BME280_humidity;BME280_pressure;Samples;Min_cycle;Max_cycle;Signal;HPM_P1;HPM_P2
2023/07/14 00:00:32;;;;;;;3.40;3.20;;;15.00;99.90;;;;;;4814977;29;20584;-89
2023/07/14 00:02:59;;;;;;;3.40;3.20;;;15.10;99.90;;;;;;4831393;29;20053;-89
2023/07/14 00:05:32;;;;;;;3.20;3.00;;;15.10;99.90;;;;;;4812669;29;20053;-89
2023/07/14 00:07:58;;;;;;;2.97;2.78;;;15.00;99.90;;;;;;4800742;29;20050;-89
2023/07/14 00:10:30;;;;;;;2.85;2.65;;;14.90;99.90;;;;;;4815018;29;20445;-93
2023/07/14 00:12:58;;;;;;;2.80;2.60;;;14.90;99.90;;;;;;4807057;29;20049;-93
2023/07/14 00:15:25;;;;;;;2.53;2.42;;;15.00;99.90;;;;;;4815372;29;20054;-92
2023/07/14 00:17:56;;;;;;;2.40;2.30;;;14.90;99.90;;;;;;4812181;29;20050;-92
2023/07/14 00:20:27;;;;;;;1.70;1.60;;;14.90;99.90;;;;;;4815526;29;20041;-91
2023/07/14 00:22:54;;;;;;;1.75;1.65;;;14.90;99.90;;;;;;4802341;29;20048;-93
2023/07/14 00:25:22;;;;;;;2.63;2.53;;;14.70;99.90;;;;;;4818947;29;20089;-91
2023/07/14 00:27:49;;;;;;;2.35;2.25;;;14.60;99.90;;;;;;4818861;29;20053;-92
2023/07/14 00:30:23;;;;;;;2.28;2.17;;;14.50;99.90;;;;;;4805317;29;20104;-91
2023/07/14 00:32:51;;;;;;;2.20;2.10;;;14.40;99.90;;;;;;4807105;29;20046;-91
2023/07/14 00:35:26;;;;;;;2.50;2.40;;;14.30;99.90;;;;;;4817661;29;20050;-90
2023/07/14 00:37:55;;;;;;;2.50;2.40;;;14.20;99.90;;;;;;4806432;29;20038;-90
2023/07/14 00:40:36;;;;;;;2.50;2.40;;;14.30;99.90;;;;;;4806206;29;20116;-90
2023/07/14 00:43:04;;;;;;;2.40;2.30;;;14.30;99.90;;;;;;4805937;29;20046;-91
2023/07/14 00:45:32;;;;;;;2.60;2.50;;;14.30;99.90;;;;;;4801420;29;20057;-90
2023/07/14 00:48:04;;;;;;;2.50;2.40;;;14.30;99.90;;;;;;4813853;29;20527;-90
2023/07/14 00:50:40;;;;;;;2.50;2.40;;;14.10;99.90;;;;;;4800144;29;20050;-91
2023/07/14 00:53:18;;;;;;;2.47;2.38;;;14.10;99.90;;;;;;4821146;29;20050;-90
2023/07/14 00:56:08;;;;;;;2.50;2.40;;;14.30;99.90;;;;;;4823710;29;20098;-91
2023/07/14 00:58:34;;;;;;;2.50;2.40;;;14.40;99.90;;;;;;4817221;29;20057;-91
2023/07/14 01:01:10;;;;;;;2.50;2.40;;;14.30;99.90;;;;;;4821317;29;20106;-89
2023/07/14 01:03:41;;;;;;;2.40;2.30;;;14.20;99.90;;;;;;4821087;29;20069;-92
2023/07/14 01:06:32;;;;;;;2.50;2.40;;;14.30;99.90;;;;;;4825034;29;20046;-91
2023/07/14 01:09:05;;;;;;;2.50;2.40;;;14.20;99.90;;;;;;4835111;29;20050;-90
2023/07/14 01:11:39;;;;;;;2.47;2.38;;;14.30;99.90;;;;;;4804100;29;20045;-91
2023/07/14 01:14:11;;;;;;;2.47;2.38;;;14.20;99.90;;;;;;4838232;29;20046;-90
2023/07/14 01:16:38;;;;;;;2.35;2.25;;;14.10;99.90;;;;;;4810302;29;20054;-92
2023/07/14 01:19:41;;;;;;;2.30;2.20;;;14.20;99.90;;;;;;4816306;29;20049;-95
2023/07/14 01:22:17;;;;;;;2.28;2.17;;;14.20;99.90;;;;;;4826697;29;20049;-93
2023/07/14 01:25:18;;;;;;;2.22;2.13;;;14.30;99.90;;;;;;4840248;29;20038;-92
2023/07/14 01:27:46;;;;;;;2.05;1.95;;;13.90;99.90;;;;;;4802717;29;20103;-94
2023/07/14 01:30:12;;;;;;;2.00;1.90;;;14.00;99.90;;;;;;4807545;29;20534;-92
2023/07/14 01:32:47;;;;;;;2.15;2.05;;;14.00;99.90;;;;;;4825194;29;20050;-93
2023/07/14 01:35:16;;;;;;;2.00;1.90;;;14.20;99.90;;;;;;4835293;29;20050;-93
2023/07/14 01:37:46;;;;;;;2.00;1.90;;;14.30;99.90;;;;;;4814043;29;20110;-95
2023/07/14 01:40:18;;;;;;;2.00;1.90;;;14.40;99.90;;;;;;4818943;29;20045;-95
2023/07/14 01:42:52;;;;;;;2.00;1.90;;;14.40;99.90;;;;;;4815762;29;20051;-94
2023/07/14 01:45:31;;;;;;;1.90;1.80;;;14.40;99.90;;;;;;4822624;29;20056;-95
2023/07/14 01:48:00;;;;;;;2.08;1.98;;;14.60;99.90;;;;;;4812891;29;20111;-94
2023/07/14 01:50:35;;;;;;;2.20;2.10;;;14.60;99.90;;;;;;4823574;29;20508;-92
2023/07/14 01:53:17;;;;;;;2.28;2.17;;;14.60;99.90;;;;;;4804100;29;20042;-93
2023/07/14 01:55:46;;;;;;;2.50;2.40;;;14.60;99.90;;;;;;4817974;29;20050;-93
2023/07/14 01:58:23;;;;;;;2.30;2.20;;;14.60;99.90;;;;;;4800963;29;20074;-93
2023/07/14 02:00:51;;;;;;;1.20;1.20;;;14.50;99.90;;;;;;4821803;29;20497;-93
2023/07/14 02:03:26;;;;;;;1.00;1.00;;;14.20;99.90;;;;;;4822447;29;20524;-92
2023/07/14 02:05:51;;;;;;;1.00;1.00;;;14.40;99.90;;;;;;4818460;29;20458;-94
2023/07/14 02:08:23;;;;;;;1.00;1.00;;;14.30;99.90;;;;;;4819538;29;20089;-93
2023/07/14 02:10:49;;;;;;;1.00;1.00;;;14.20;99.90;;;;;;4837265;29;20050;-93
2023/07/14 02:13:15;;;;;;;1.10;1.10;;;14.10;99.90;;;;;;4829674;29;20052;-95
2023/07/14 02:15:51;;;;;;;1.30;1.30;;;14.20;99.90;;;;;;4817354;29;20055;-95
2023/07/14 02:18:25;;;;;;;1.50;1.40;;;14.20;99.90;;;;;;4809422;29;20052;-93
2023/07/14 02:20:53;;;;;;;1.60;1.50;;;14.10;99.90;;;;;;4819728;29;20051;-94
2023/07/14 02:23:23;;;;;;;1.60;1.50;;;14.00;99.90;;;;;;4821420;29;20110;-93
2023/07/14 02:26:11;;;;;;;1.60;1.50;;;14.00;99.90;;;;;;4834085;29;20050;-93
2023/07/14 02:28:36;;;;;;;1.65;1.55;;;14.00;99.90;;;;;;4808263;29;20110;-94
2023/07/14 02:31:38;;;;;;;1.67;1.58;;;14.20;99.90;;;;;;4800078;29;20046;-94
2023/07/14 02:34:04;;;;;;;1.70;1.60;;;14.30;99.90;;;;;;4802997;29;20199;-93
2023/07/14 02:36:56;;;;;;;1.60;1.50;;;14.30;99.90;;;;;;4824519;29;20404;-93
2023/07/14 02:39:22;;;;;;;1.60;1.50;;;14.40;99.90;;;;;;4813479;29;20058;-93
2023/07/14 02:41:50;;;;;;;1.60;1.50;;;14.30;99.90;;;;;;4820696;29;20043;-94
2023/07/14 02:44:17;;;;;;;1.60;1.50;;;14.30;99.90;;;;;;4823550;29;20052;-94
2023/07/14 02:46:57;;;;;;;1.63;1.52;;;14.10;99.90;;;;;;4812147;29;20133;-93
2023/07/14 02:49:23;;;;;;;1.63;1.52;;;14.10;99.90;;;;;;4823578;29;20049;-93
2023/07/14 02:51:49;;;;;;;1.67;1.58;;;14.00;99.90;;;;;;4819309;29;20038;-93
2023/07/14 02:54:15;;;;;;;1.70;1.60;;;14.00;99.90;;;;;;4808885;29;20046;-93
2023/07/14 02:56:40;;;;;;;1.70;1.60;;;14.10;99.90;;;;;;4815466;29;20081;-92
2023/07/14 02:59:09;;;;;;;1.70;1.60;;;13.80;99.90;;;;;;4819686;29;20113;-93
2023/07/14 03:01:35;;;;;;;1.65;1.55;;;13.70;99.90;;;;;;4806273;29;20115;-94
2023/07/14 03:04:01;;;;;;;1.77;1.67;;;13.90;99.90;;;;;;4819629;29;20046;-92
2023/07/14 03:06:27;;;;;;;1.80;1.70;;;14.00;99.90;;;;;;4823200;29;20058;-93
2023/07/14 03:08:53;;;;;;;1.90;1.80;;;14.00;99.90;;;;;;4809060;29;20078;-94
2023/07/14 03:11:18;;;;;;;1.90;1.80;;;14.00;99.90;;;;;;4808448;29;20049;-93
2023/07/14 03:13:46;;;;;;;2.22;2.13;;;14.10;99.90;;;;;;4821917;29;20050;-94
2023/07/14 03:16:12;;;;;;;1.95;1.85;;;14.10;99.90;;;;;;4810299;29;20057;-94
2023/07/14 03:18:38;;;;;;;2.03;1.92;;;14.20;99.90;;;;;;4821592;29;20099;-91
2023/07/14 03:21:04;;;;;;;1.95;1.85;;;14.20;99.90;;;;;;4824211;29;20079;-92
2023/07/14 03:23:31;;;;;;;2.00;1.90;;;14.20;99.90;;;;;;4804460;29;20058;-91
2023/07/14 03:26:03;;;;;;;1.90;1.80;;;14.20;99.90;;;;;;4815751;29;20046;-91
2023/07/14 03:28:29;;;;;;;1.92;1.83;;;14.20;99.90;;;;;;4802756;29;20054;-92
2023/07/14 03:30:55;;;;;;;1.70;1.60;;;14.30;99.90;;;;;;4818417;29;20110;-92
2023/07/14 03:33:21;;;;;;;1.60;1.50;;;14.30;99.90;;;;;;4801198;29;20046;-92
2023/07/14 03:35:47;;;;;;;1.65;1.55;;;14.30;99.90;;;;;;4815605;29;20517;-91
2023/07/14 03:38:13;;;;;;;1.73;1.63;;;14.30;99.90;;;;;;4800074;29;20141;-90
2023/07/14 03:40:39;;;;;;;1.70;1.60;;;14.30;99.90;;;;;;4813891;29;20056;-92
2023/07/14 03:43:05;;;;;;;1.65;1.55;;;14.30;99.90;;;;;;4815274;29;20050;-92
2023/07/14 03:45:32;;;;;;;1.60;1.50;;;14.30;99.90;;;;;;4813382;29;20058;-90
2023/07/14 03:47:58;;;;;;;1.67;1.58;;;14.40;99.90;;;;;;4819523;29;20046;-92
2023/07/14 03:50:24;;;;;;;1.80;1.70;;;14.30;99.90;;;;;;4818440;29;20061;-92
2023/07/14 03:52:49;;;;;;;1.67;1.58;;;14.20;99.90;;;;;;4817946;29;20058;-92
2023/07/14 03:55:15;;;;;;;1.90;1.80;;;14.10;99.90;;;;;;4806800;29;20130;-91
2023/07/14 03:57:44;;;;;;;1.90;1.80;;;14.00;99.90;;;;;;4803865;29;20053;-92
2023/07/14 04:00:13;;;;;;;1.90;1.80;;;14.10;99.90;;;;;;4818961;29;20042;-93
2023/07/14 04:02:40;;;;;;;1.90;1.80;;;14.30;99.90;;;;;;4822124;29;20049;-94
2023/07/14 04:05:07;;;;;;;1.90;1.80;;;14.30;99.90;;;;;;4836904;29;20520;-93
2023/07/14 04:07:38;;;;;;;1.90;1.80;;;14.30;99.90;;;;;;4828226;29;20050;-92
2023/07/14 04:10:06;;;;;;;2.00;1.90;;;14.30;99.90;;;;;;4818092;29;20045;-94
2023/07/14 04:12:33;;;;;;;2.00;1.90;;;14.40;99.90;;;;;;4820813;29;20493;-92
2023/07/14 04:14:59;;;;;;;2.10;2.00;;;14.30;99.90;;;;;;4824148;29;20074;-92
2023/07/14 04:17:27;;;;;;;2.05;1.95;;;14.40;99.90;;;;;;4815270;29;20083;-94
2023/07/14 04:19:53;;;;;;;2.20;2.10;;;14.20;99.90;;;;;;4819333;29;20508;-94
2023/07/14 04:22:19;;;;;;;2.10;2.00;;;14.20;99.90;;;;;;4812964;29;20050;-91
2023/07/14 04:24:45;;;;;;;2.00;1.90;;;14.30;99.90;;;;;;4811220;29;20077;-93
2023/07/14 04:27:14;;;;;;;2.10;2.00;;;14.20;99.90;;;;;;4823104;29;20061;-94
2023/07/14 04:29:40;;;;;;;2.08;1.98;;;14.30;99.90;;;;;;4818893;29;20065;-93
2023/07/14 04:32:06;;;;;;;2.13;2.03;;;14.50;99.90;;;;;;4815101;29;20110;-93
2023/07/14 04:34:33;;;;;;;2.08;1.98;;;14.60;99.90;;;;;;4823843;29;20133;-93
2023/07/14 04:36:59;;;;;;;2.05;1.95;;;14.60;99.90;;;;;;4799084;29;20042;-94
2023/07/14 04:39:25;;;;;;;1.95;1.85;;;14.80;99.90;;;;;;4822176;29;20042;-92
2023/07/14 04:41:52;;;;;;;2.05;1.95;;;14.80;99.90;;;;;;4801833;29;20045;-95
2023/07/14 04:44:18;;;;;;;2.10;2.00;;;14.90;99.90;;;;;;4814803;29;20054;-93
2023/07/14 04:46:45;;;;;;;2.30;2.20;;;15.00;99.90;;;;;;4820701;29;20046;-93
2023/07/14 04:49:11;;;;;;;2.30;2.20;;;15.20;99.90;;;;;;4819683;29;20077;-94
2023/07/14 04:51:38;;;;;;;2.38;2.28;;;15.30;99.90;;;;;;4819161;29;20467;-94
2023/07/14 04:54:35;;;;;;;2.40;2.30;;;15.40;99.90;;;;;;4820615;29;20702;-94
2023/07/14 04:57:07;;;;;;;2.35;2.25;;;15.50;99.90;;;;;;4806053;29;20054;-94
2023/07/14 05:00:14;;;;;;;2.28;2.17;;;15.50;99.90;;;;;;4829258;29;20084;-96
2023/07/14 05:02:39;;;;;;;2.80;2.60;;;15.60;99.90;;;;;;4817142;29;20061;-91
2023/07/14 05:05:15;;;;;;;2.55;2.45;;;15.80;99.90;;;;;;4811045;29;20621;-92
2023/07/14 05:07:44;;;;;;;2.50;2.40;;;15.70;99.90;;;;;;4816543;29;20053;-92
2023/07/14 05:10:10;;;;;;;2.50;2.40;;;15.70;99.90;;;;;;4815085;29;20508;-95
2023/07/14 05:12:36;;;;;;;2.88;2.67;;;15.80;99.90;;;;;;4813127;29;20065;-93
2023/07/14 05:15:10;;;;;;;2.58;2.47;;;16.00;99.90;;;;;;4815089;29;20057;-93
2023/07/14 05:17:36;;;;;;;2.60;2.50;;;15.90;99.90;;;;;;4804540;29;20046;-94
2023/07/14 05:20:05;;;;;;;2.55;2.45;;;15.90;99.90;;;;;;4819092;29;20137;-94
2023/07/14 05:22:31;;;;;;;2.60;2.50;;;16.10;99.90;;;;;;4831350;29;20118;-94
2023/07/14 05:24:57;;;;;;;2.63;2.53;;;16.20;99.90;;;;;;4820602;29;20134;-95
2023/07/14 05:27:23;;;;;;;2.70;2.55;;;16.10;99.90;;;;;;4807878;29;20466;-94
2023/07/14 05:29:53;;;;;;;3.05;2.85;;;16.10;99.90;;;;;;4821461;29;20043;-94
2023/07/14 05:32:21;;;;;;;2.90;2.70;;;16.20;99.90;;;;;;4813540;29;20054;-94
2023/07/14 05:34:48;;;;;;;2.78;2.60;;;16.30;99.90;;;;;;4821905;29;20096;-95
2023/07/14 05:37:17;;;;;;;2.85;2.65;;;16.30;99.90;;;;;;4814995;29;20047;-94
2023/07/14 05:39:47;;;;;;;3.10;2.90;;;16.20;99.90;;;;;;4821185;29;20033;-94
2023/07/14 05:42:15;;;;;;;3.30;3.10;;;16.10;99.90;;;;;;4803266;29;20408;-95
2023/07/14 05:44:41;;;;;;;3.13;2.92;;;16.30;99.90;;;;;;4824326;29;20045;-95
2023/07/14 05:47:06;;;;;;;3.13;2.92;;;16.20;99.90;;;;;;4815459;29;20069;-94
2023/07/14 05:49:35;;;;;;;3.08;2.88;;;16.50;99.90;;;;;;4812985;29;20078;-93
2023/07/14 05:52:02;;;;;;;3.10;2.90;;;16.50;99.90;;;;;;4814246;29;20073;-94
2023/07/14 05:54:30;;;;;;;3.25;3.05;;;16.60;99.90;;;;;;4826077;29;20061;-93
2023/07/14 05:56:58;;;;;;;3.15;2.95;;;16.80;99.90;;;;;;4815665;29;20050;-95
2023/07/14 05:59:24;;;;;;;3.15;2.95;;;16.80;99.90;;;;;;4810864;29;20097;-94
2023/07/14 06:01:50;;;;;;;3.00;2.80;;;16.80;99.90;;;;;;4809874;29;20042;-93
2023/07/14 06:04:19;;;;;;;3.08;2.88;;;16.90;99.90;;;;;;4824026;29;20053;-96
2023/07/14 06:06:45;;;;;;;3.10;2.90;;;16.80;99.90;;;;;;4822705;29;20050;-95
2023/07/14 06:09:13;;;;;;;3.03;2.83;;;16.90;99.90;;;;;;4819628;29;20049;-94
2023/07/14 06:11:40;;;;;;;3.25;3.05;;;17.00;99.90;;;;;;4819872;29;20057;-89
2023/07/14 06:14:06;;;;;;;3.25;3.05;;;17.10;99.90;;;;;;4806592;29;20497;-90
2023/07/14 06:16:37;;;;;;;3.67;3.47;;;17.30;99.90;;;;;;4807940;29;20106;-94
2023/07/14 06:19:18;;;;;;;3.55;3.35;;;18.30;99.90;;;;;;4815487;29;20046;-96
2023/07/14 06:21:44;;;;;;;3.63;3.42;;;18.60;99.90;;;;;;4818696;29;20054;-95
2023/07/14 06:24:10;;;;;;;3.20;3.00;;;18.60;99.90;;;;;;4809605;29;20050;-92
2023/07/14 06:26:35;;;;;;;2.83;2.63;;;18.50;99.90;;;;;;4815804;29;20082;-94
2023/07/14 06:29:01;;;;;;;2.90;2.70;;;18.60;99.90;;;;;;4818320;29;20062;-95
2023/07/14 06:31:27;;;;;;;2.58;2.47;;;18.90;99.90;;;;;;4816087;29;20050;-90
2023/07/14 06:33:55;;;;;;;2.40;2.30;;;19.10;99.90;;;;;;4802507;29;20050;-94
2023/07/14 06:36:21;;;;;;;2.42;2.33;;;19.10;99.90;;;;;;4836949;29;20050;-92
2023/07/14 06:41:52;;;;;;;2.05;1.95;;;18.90;99.90;;;;;;4802958;29;20064;-92
2023/07/14 06:44:17;;;;;;;1.80;1.70;;;19.00;99.90;;;;;;4818786;29;20070;-94
2023/07/14 06:46:43;;;;;;;1.88;1.77;;;18.90;99.90;;;;;;4834813;29;20083;-92
2023/07/14 06:49:10;;;;;;;1.75;1.65;;;19.40;99.90;;;;;;4838559;29;20530;-94
2023/07/14 06:51:38;;;;;;;1.55;1.45;;;20.10;99.90;;;;;;4820549;29;20050;-96
2023/07/14 06:54:04;;;;;;;1.50;1.42;;;20.80;99.90;;;;;;4818341;29;20073;-94
2023/07/14 07:00:16;;;;;;;1.20;1.20;;;21.40;99.90;;;;;;4773509;29;20056;-96
2023/07/14 07:02:48;;;;;;;1.23;1.23;;;21.50;99.90;;;;;;4819087;29;20057;-96
2023/07/14 07:05:19;;;;;;;1.17;1.17;;;21.30;99.90;;;;;;4817925;29;20042;-96
2023/07/14 07:08:11;;;;;;;1.00;1.00;;;21.90;99.90;;;;;;4824578;29;20042;-96
2023/07/14 07:10:45;;;;;;;1.15;1.15;;;22.10;99.90;;;;;;4804910;29;20134;-95
2023/07/14 07:13:38;;;;;;;1.10;1.10;;;22.10;99.90;;;;;;4842004;29;20049;-96
2023/07/14 07:16:07;;;;;;;1.20;1.20;;;22.10;99.90;;;;;;4822997;29;20482;-93
2023/07/14 07:18:36;;;;;;;1.30;1.30;;;22.00;99.90;;;;;;4810255;29;20041;-94
2023/07/14 07:21:07;;;;;;;1.30;1.30;;;22.40;99.90;;;;;;4828983;29;20126;-88
2023/07/14 07:23:35;;;;;;;1.20;1.20;;;23.00;99.90;;;;;;4816739;29;20167;-92
2023/07/14 07:26:33;;;;;;;1.00;1.00;;;22.60;99.90;;;;;;4829856;29;20116;-90
2023/07/14 07:28:59;;;;;;;1.10;1.10;;;22.80;99.90;;;;;;4810052;29;20133;-94
2023/07/14 07:31:25;;;;;;;1.02;1.00;;;22.50;99.90;;;;;;4803702;29;20187;-95
2023/07/14 07:37:01;;;;;;;0.82;0.82;;;22.70;99.90;;;;;;4817404;29;20050;-92
2023/07/14 07:39:37;;;;;;;0.80;0.80;;;22.90;99.90;;;;;;4811105;29;20472;-95
2023/07/14 07:42:04;;;;;;;0.80;0.80;;;22.90;99.90;;;;;;4827367;29;20576;-91
2023/07/14 07:44:31;;;;;;;0.70;0.70;;;22.80;99.90;;;;;;4816195;29;20419;-90
2023/07/14 07:47:03;;;;;;;0.70;0.70;;;23.20;99.90;;;;;;4820849;29;20068;-93
2023/07/14 07:49:30;;;;;;;0.75;0.75;;;23.10;99.90;;;;;;4810165;29;20577;-93
2023/07/14 07:51:59;;;;;;;0.90;0.90;;;23.10;99.90;;;;;;4825247;29;20107;-93
2023/07/14 07:54:25;;;;;;;0.82;0.82;;;23.00;99.90;;;;;;4834050;29;20464;-92
2023/07/14 07:56:57;;;;;;;0.90;0.90;;;23.10;99.90;;;;;;4821594;29;20128;-95
2023/07/14 07:59:22;;;;;;;0.50;0.50;;;23.00;99.90;;;;;;4802289;29;20051;-92
2023/07/14 08:01:48;;;;;;;0.90;0.90;;;23.20;99.90;;;;;;4805268;29;20109;-87
2023/07/14 08:04:16;;;;;;;0.90;0.90;;;23.00;99.90;;;;;;4806159;29;20046;-89
2023/07/14 08:06:42;;;;;;;1.00;1.00;;;22.60;99.90;;;;;;4814173;29;20064;-91
2023/07/14 08:09:09;;;;;;;0.30;0.30;;;22.70;99.90;;;;;;4810950;29;20054;-90
2023/07/14 08:11:35;;;;;;;0.93;0.93;;;22.70;99.90;;;;;;4820673;29;20038;-92
2023/07/14 08:14:11;;;;;;;1.00;1.00;;;23.10;99.90;;;;;;4804539;29;20510;-90
2023/07/14 08:16:51;;;;;;;1.00;1.00;;;23.60;99.90;;;;;;4798926;29;20066;-94
2023/07/14 08:19:17;;;;;;;0.98;0.98;;;23.30;99.90;;;;;;4796773;29;20100;-86
2023/07/14 08:21:43;;;;;;;1.00;1.00;;;23.20;99.90;;;;;;4833182;29;20087;-86
2023/07/14 08:24:09;;;;;;;0.30;0.30;;;23.10;99.90;;;;;;4827199;29;20137;-88
2023/07/14 08:26:37;;;;;;;1.00;1.00;;;22.90;99.90;;;;;;4834358;29;20497;-89
2023/07/14 08:29:09;;;;;;;0.90;0.90;;;23.10;99.90;;;;;;4803140;29;20145;-91
2023/07/14 08:31:38;;;;;;;0.90;0.90;;;23.20;99.90;;;;;;4816811;29;20050;-93
2023/07/14 08:34:08;;;;;;;1.00;1.00;;;23.20;99.90;;;;;;4813316;29;20505;-90
2023/07/14 08:36:34;;;;;;;0.98;0.98;;;23.40;99.90;;;;;;4816355;29;20475;-84
2023/07/14 08:39:00;;;;;;;0.43;0.40;;;23.10;99.90;;;;;;4811435;29;20054;-85
2023/07/14 08:41:33;;;;;;;0.90;0.90;;;23.30;99.90;;;;;;4812715;29;20480;-83
2023/07/14 08:44:09;;;;;;;0.30;0.30;;;23.80;99.90;;;;;;4809323;29;20054;-85
2023/07/14 08:47:02;;;;;;;0.32;0.32;;;23.20;99.90;;;;;;4809477;29;20050;-86
2023/07/14 08:49:36;;;;;;;0.90;0.90;;;23.70;99.90;;;;;;4815349;29;20046;-86
2023/07/14 08:52:17;;;;;;;0.85;0.85;;;23.70;99.90;;;;;;4811971;29;20044;-88
2023/07/14 08:54:59;;;;;;;0.30;0.30;;;23.10;99.90;;;;;;4825865;29;20058;-92
2023/07/14 08:57:33;;;;;;;0.75;0.75;;;22.90;99.90;;;;;;4818094;29;20556;-93
2023/07/14 09:00:09;;;;;;;0.32;0.32;;;22.80;99.90;;;;;;4810503;29;20058;-88
2023/07/14 09:02:50;;;;;;;0.90;0.90;;;22.80;99.90;;;;;;4829499;29;20050;-91
2023/07/14 09:05:31;;;;;;;0.90;0.90;;;22.30;99.90;;;;;;4815094;29;20077;-96
2023/07/14 09:07:57;;;;;;;1.00;1.00;;;22.10;99.90;;;;;;4797960;29;20142;-90
2023/07/14 09:10:33;;;;;;;0.30;0.30;;;22.60;99.90;;;;;;4802472;29;20078;-89
2023/07/14 09:13:26;;;;;;;1.00;1.00;;;23.10;99.90;;;;;;4816824;29;20050;-88
2023/07/14 09:15:52;;;;;;;1.00;1.00;;;23.10;99.90;;;;;;4820915;29;20118;-85
2023/07/14 09:19:02;;;;;;;0.80;0.80;;;22.70;99.90;;;;;;4814196;29;20042;-85
2023/07/14 09:22:07;;;;;;;1.00;1.00;;;22.40;99.90;;;;;;4778221;29;20064;-91
2023/07/14 09:25:05;;;;;;;1.00;1.00;;;23.20;99.90;;;;;;4839945;29;20053;-87
2023/07/14 09:27:31;;;;;;;1.00;1.00;;;23.50;99.90;;;;;;4818376;29;20214;-86
2023/07/14 09:29:59;;;;;;;1.00;1.00;;;23.80;99.90;;;;;;4820034;29;20058;-86
2023/07/14 09:32:40;;;;;;;0.55;0.55;;;23.60;99.90;;;;;;4820385;29;20111;-90
2023/07/14 09:35:21;;;;;;;0.90;0.90;;;24.20;99.90;;;;;;4817052;29;20062;-89
2023/07/14 09:38:26;;;;;;;0.77;0.77;;;23.90;99.90;;;;;;4821773;29;20046;-83
2023/07/14 09:40:59;;;;;;;0.52;0.52;;;23.40;99.90;;;;;;4812848;29;20122;-92
2023/07/14 09:43:27;;;;;;;0.75;0.75;;;23.50;99.90;;;;;;4833175;29;20050;-88
2023/07/14 09:45:54;;;;;;;0.30;0.30;;;23.40;99.90;;;;;;4825115;29;20087;-89
2023/07/14 09:48:22;;;;;;;0.80;0.80;;;23.60;99.90;;;;;;4808065;29;20568;-85
2023/07/14 09:51:02;;;;;;;0.30;0.30;;;23.00;99.90;;;;;;4820506;29;20050;-92
2023/07/14 09:53:29;;;;;;;0.77;0.77;;;23.40;99.90;;;;;;4812375;29;20622;-86
2023/07/14 09:56:06;;;;;;;0.30;0.30;;;23.20;99.90;;;;;;4818929;29;20057;-89
2023/07/14 09:58:36;;;;;;;0.75;0.75;;;22.90;99.90;;;;;;4807191;29;20053;-89
2023/07/14 10:01:14;;;;;;;0.80;0.80;;;22.20;99.90;;;;;;4816251;29;20050;-88
2023/07/14 10:03:49;;;;;;;0.30;0.30;;;22.60;99.90;;;;;;4824291;29;20042;-90
2023/07/14 10:06:21;;;;;;;0.80;0.80;;;22.60;99.90;;;;;;4811412;29;20066;-85
2023/07/14 10:08:54;;;;;;;0.80;0.80;;;22.50;99.90;;;;;;4822665;29;20178;-85
2023/07/14 10:11:55;;;;;;;0.75;0.75;;;23.10;99.90;;;;;;4829529;29;20050;-84
2023/07/14 10:14:45;;;;;;;0.77;0.77;;;23.20;99.90;;;;;;4820558;29;20107;-86
2023/07/14 10:17:23;;;;;;;0.75;0.75;;;23.40;99.90;;;;;;4824133;29;20115;-86
2023/07/14 10:19:50;;;;;;;0.80;0.80;;;23.50;99.90;;;;;;4836055;29;20460;-84
2023/07/14 10:22:23;;;;;;;0.90;0.90;;;23.10;99.90;;;;;;4817573;29;20061;-86
2023/07/14 10:24:56;;;;;;;0.40;0.40;;;22.60;99.90;;;;;;4811969;29;20107;-90
2023/07/14 10:27:30;;;;;;;;;;;22.40;99.90;;;;;;4813798;29;20138;-89
2023/07/14 10:30:14;;;;;;;0.80;0.80;;;22.90;99.90;;;;;;4799614;29;19924;-91
2023/07/14 10:32:41;;;;;;;;;;;23.20;99.90;;;;;;4810086;29;20046;-86
2023/07/14 10:35:26;;;;;;;0.80;0.80;;;23.60;99.90;;;;;;4816608;29;20061;-86
2023/07/14 10:38:11;;;;;;;0.85;0.85;;;23.70;99.90;;;;;;4813642;29;20058;-90
2023/07/14 10:40:47;;;;;;;0.80;0.80;;;24.40;99.90;;;;;;4810510;29;20061;-91
2023/07/14 10:43:40;;;;;;;0.75;0.75;;;25.10;99.90;;;;;;4829914;29;20053;-95
2023/07/14 10:46:16;;;;;;;0.80;0.80;;;24.60;99.90;;;;;;4815956;29;20049;-90
2023/07/14 10:48:47;;;;;;;0.35;0.35;;;23.90;99.90;;;;;;4834966;29;20074;-84
2023/07/14 10:51:20;;;;;;;0.40;0.40;;;23.90;99.90;;;;;;4810051;29;20062;-87
2023/07/14 10:53:55;;;;;;;0.47;0.47;;;23.70;99.90;;;;;;4814984;29;20042;-91
2023/07/14 10:56:47;;;;;;;0.30;0.30;;;23.70;99.90;;;;;;4804122;29;20051;-91
2023/07/14 11:02:34;;;;;;;0.90;0.90;;;23.90;99.90;;;;;;4810649;29;20512;-87
2023/07/14 11:05:13;;;;;;;0.30;0.30;;;24.10;99.90;;;;;;4812924;29;20050;-86
2023/07/14 11:07:39;;;;;;;0.75;0.75;;;23.80;99.90;;;;;;4819949;29;20064;-86
2023/07/14 11:10:39;;;;;;;0.60;0.60;;;23.30;99.90;;;;;;4834700;29;20129;-87
2023/07/14 11:13:26;;;;;;;0.82;0.82;;;23.20;99.90;;;;;;4817509;29;20183;-92
2023/07/14 11:16:34;;;;;;;0.45;0.45;;;23.40;99.90;;;;;;4820940;29;20050;-94
2023/07/14 11:19:06;;;;;;;0.95;0.95;;;24.70;99.90;;;;;;4834691;29;20053;-91
2023/07/14 11:21:55;;;;;;;0.30;0.30;;;24.80;99.90;;;;;;4827286;29;20050;-92
2023/07/14 11:24:35;;;;;;;0.30;0.30;;;24.60;99.90;;;;;;4812085;29;20761;-84
2023/07/14 11:27:16;;;;;;;1.00;1.00;;;24.10;99.90;;;;;;4834702;29;20058;-94
2023/07/14 11:29:57;;;;;;;0.30;0.30;;;23.80;99.90;;;;;;4832071;29;20046;-91
2023/07/14 11:33:17;;;;;;;1.13;1.13;;;23.70;99.90;;;;;;4820159;29;20047;-94
2023/07/14 11:35:58;;;;;;;0.30;0.30;;;24.80;99.90;;;;;;4796321;29;20069;-86
2023/07/14 11:38:38;;;;;;;0.30;0.30;;;25.10;99.90;;;;;;4828984;29;20057;-95
2023/07/14 11:41:23;;;;;;;0.30;0.30;;;25.10;99.90;;;;;;4815717;29;20075;-94
2023/07/14 11:43:50;;;;;;;0.30;0.30;;;24.80;99.90;;;;;;4823499;29;20454;-88
2023/07/14 11:46:30;;;;;;;0.30;0.30;;;24.30;99.90;;;;;;4814225;29;20126;-89
2023/07/14 11:48:55;;;;;;;0.30;0.30;;;24.80;99.90;;;;;;4801217;29;20117;-88
2023/07/14 11:51:48;;;;;;;0.40;0.40;;;25.50;99.90;;;;;;4808328;29;20447;-87
2023/07/14 11:54:53;;;;;;;0.30;0.30;;;25.50;99.90;;;;;;4825197;29;20090;-90
2023/07/14 11:57:22;;;;;;;0.30;0.30;;;24.90;99.90;;;;;;4829561;29;20389;-88
2023/07/14 11:59:59;;;;;;;0.30;0.30;;;25.00;99.90;;;;;;4811924;29;20085;-95
2023/07/14 12:02:27;;;;;;;0.30;0.30;;;25.30;99.90;;;;;;4819385;29;20056;-85
2023/07/14 12:05:27;;;;;;;0.30;0.30;;;24.80;99.90;;;;;;4824335;29;20042;-87
2023/07/14 12:08:21;;;;;;;0.30;0.30;;;24.20;99.90;;;;;;4809329;29;20064;-93
2023/07/14 12:10:50;;;;;;;0.30;0.30;;;24.40;99.90;;;;;;4833490;29;20606;-94
2023/07/14 12:13:27;;;;;;;0.30;0.30;;;24.30;99.90;;;;;;4818105;29;20042;-93
2023/07/14 12:16:02;;;;;;;0.30;0.30;;;24.20;99.90;;;;;;4816986;29;20061;-92
2023/07/14 12:19:11;;;;;;;0.30;0.30;;;24.40;99.90;;;;;;4819591;29;20066;-96
2023/07/14 12:22:09;;;;;;;0.38;0.38;;;24.10;99.90;;;;;;4825864;29;20589;-92
2023/07/14 12:24:50;;;;;;;0.30;0.30;;;24.00;99.90;;;;;;4837738;29;20058;-92
2023/07/14 12:27:49;;;;;;;0.60;0.60;;;24.20;99.90;;;;;;4829944;29;20053;-92
2023/07/14 12:30:49;;;;;;;0.63;0.63;;;24.10;99.90;;;;;;4816486;29;20568;-94
2023/07/14 12:33:21;;;;;;;1.25;1.25;;;24.10;99.90;;;;;;4815218;29;20201;-95
2023/07/14 12:35:51;;;;;;;0.40;0.40;;;23.80;99.90;;;;;;4820468;29;20057;-94
2023/07/14 12:38:35;;;;;;;1.20;1.20;;;23.40;99.90;;;;;;4820245;29;20094;-93
2023/07/14 12:41:03;;;;;;;0.45;0.45;;;23.20;99.90;;;;;;4817184;29;20181;-91
2023/07/14 12:43:37;;;;;;;1.25;1.25;;;23.10;99.90;;;;;;4834483;29;20114;-96
2023/07/14 12:46:12;;;;;;;1.40;1.35;;;23.10;99.90;;;;;;4836575;29;20054;-92
2023/07/14 12:49:04;;;;;;;1.25;1.25;;;23.30;99.90;;;;;;4818396;29;20046;-95
2023/07/14 12:51:39;;;;;;;1.75;1.65;;;23.40;99.90;;;;;;4818082;29;20084;-96
2023/07/14 12:55:08;;;;;;;1.25;1.25;;;23.60;99.90;;;;;;4828239;29;20049;-96
2023/07/14 12:57:24;;;;;;;1.13;1.13;;;23.80;99.90;;;;;;4820990;29;20568;-94
2023/07/14 12:59:51;;;;;;;0.52;0.52;;;23.80;99.90;;;;;;4815223;29;20153;-91
2023/07/14 13:02:18;;;;;;;1.38;1.35;;;23.40;99.90;;;;;;4799923;29;20062;-94
2023/07/14 13:04:44;;;;;;;1.60;1.50;;;23.10;99.90;;;;;;4838707;29;20069;-87
2023/07/14 13:07:38;;;;;;;1.27;1.27;;;23.30;99.90;;;;;;4808028;29;20077;-89
2023/07/14 13:10:31;;;;;;;1.60;1.50;;;23.30;99.90;;;;;;4816371;29;20056;-89
2023/07/14 13:13:20;;;;;;;1.30;1.30;;;23.10;99.90;;;;;;4822081;29;20043;-96
2023/07/14 13:15:51;;;;;;;1.30;1.30;;;23.00;99.90;;;;;;4827220;29;20046;-96
2023/07/14 13:18:27;;;;;;;1.58;1.48;;;23.00;99.90;;;;;;4815119;29;20065;-96
2023/07/14 13:21:06;;;;;;;0.98;0.98;;;22.80;99.90;;;;;;4837382;29;20075;-93
2023/07/14 13:23:36;;;;;;;1.65;1.55;;;22.60;99.90;;;;;;4821955;29;20133;-92
2023/07/14 13:26:27;;;;;;;1.67;1.58;;;22.40;99.90;;;;;;4820983;29;20129;-92
2023/07/14 13:32:23;;;;;;;1.63;1.52;;;22.50;99.90;;;;;;4805396;29;20113;-94
2023/07/14 13:34:51;;;;;;;1.75;1.65;;;22.60;99.90;;;;;;4825420;29;20050;-93
2023/07/14 13:37:20;;;;;;;1.60;1.50;;;22.90;99.90;;;;;;4817712;29;20126;-95